createdAt,value
2018-03-27T00:00:08.928Z,18.67
2018-03-27T00:01:08.917Z,18.62
2018-03-27T00:02:08.962Z,18.62
2018-03-27T00:03:08.914Z,18.64
2018-03-27T00:04:08.915Z,18.61
2018-03-27T00:05:08.968Z,18.58
2018-03-27T00:06:08.916Z,18.64
2018-03-27T00:07:08.991Z,18.6
2018-03-27T00:08:08.960Z,18.57
2018-03-27T00:09:08.920Z,18.62
2018-03-27T00:10:08.912Z,18.58
2018-03-27T00:11:08.995Z,18.58
2018-03-27T00:12:08.920Z,18.61
2018-03-27T00:13:08.917Z,18.55
2018-03-27T00:14:08.960Z,18.54
2018-03-27T00:15:08.896Z,18.59
2018-03-27T00:16:08.916Z,18.56
2018-03-27T00:17:12.598Z,18.54
2018-03-27T00:18:09.010Z,18.58
2018-03-27T00:19:09.013Z,18.53
2018-03-27T00:20:09.004Z,18.52
2018-03-27T00:21:09.017Z,18.57
2018-03-27T00:22:09.009Z,18.52
2018-03-27T00:23:09.000Z,18.52
2018-03-27T00:24:09.001Z,18.56
2018-03-27T00:25:09.010Z,18.53
2018-03-27T00:26:08.990Z,18.52
2018-03-27T00:27:08.995Z,18.55
2018-03-27T00:28:08.993Z,18.51
2018-03-27T00:29:08.987Z,18.5
2018-03-27T00:30:08.994Z,18.54
2018-03-27T00:31:09.002Z,18.5
2018-03-27T00:32:09.057Z,18.49
2018-03-27T00:33:08.993Z,18.54
2018-03-27T00:34:09.000Z,18.49
2018-03-27T00:35:08.971Z,18.48
2018-03-27T00:36:08.971Z,18.52
2018-03-27T00:37:09.006Z,18.47
2018-03-27T00:38:09.005Z,18.47
2018-03-27T00:39:08.977Z,18.52
2018-03-27T00:40:08.976Z,18.46
2018-03-27T00:41:09.034Z,18.46
2018-03-27T00:42:08.982Z,18.49
2018-03-27T00:43:08.955Z,18.46
2018-03-27T00:44:08.978Z,18.45
2018-03-27T00:45:08.994Z,18.5
2018-03-27T00:46:08.971Z,18.45
2018-03-27T00:47:08.986Z,18.45
2018-03-27T00:48:08.988Z,18.5
2018-03-27T00:49:08.988Z,18.45
2018-03-27T00:50:08.982Z,18.43
2018-03-27T00:51:08.999Z,18.47
2018-03-27T00:52:09.000Z,18.44
2018-03-27T00:53:08.970Z,18.43
2018-03-27T00:54:08.993Z,18.47
2018-03-27T00:55:08.978Z,18.41
2018-03-27T00:56:08.990Z,18.41
2018-03-27T00:57:08.970Z,18.46
2018-03-27T00:58:08.999Z,18.4
2018-03-27T00:59:08.971Z,18.4
2018-03-27T01:00:08.998Z,18.45
2018-03-27T01:01:08.980Z,18.41
2018-03-27T01:02:08.999Z,18.4
2018-03-27T01:03:09.024Z,18.45
2018-03-27T01:04:08.973Z,18.38
2018-03-27T01:05:08.974Z,18.39
2018-03-27T01:06:08.956Z,18.43
2018-03-27T01:07:08.978Z,18.38
2018-03-27T01:08:09.037Z,18.38
2018-03-27T01:09:08.994Z,18.42
2018-03-27T01:10:08.981Z,18.38
2018-03-27T01:11:08.988Z,18.35
2018-03-27T01:12:08.973Z,18.41
2018-03-27T01:13:08.981Z,18.36
2018-03-27T01:14:08.976Z,18.35
2018-03-27T01:15:08.985Z,18.4
2018-03-27T01:16:08.965Z,18.35
2018-03-27T01:17:09.080Z,18.35
2018-03-27T01:18:09.082Z,18.39
2018-03-27T01:19:08.968Z,18.34
2018-03-27T01:20:08.978Z,18.36
2018-03-27T01:21:08.966Z,18.39
2018-03-27T01:22:08.975Z,18.34
2018-03-27T01:23:08.981Z,18.35
2018-03-27T01:24:09.000Z,18.39
2018-03-27T01:25:08.984Z,18.33
2018-03-27T01:26:08.969Z,18.32
2018-03-27T01:27:08.995Z,18.37
2018-03-27T01:28:08.991Z,18.33
2018-03-27T01:29:08.980Z,18.31
2018-03-27T01:30:08.962Z,18.35
2018-03-27T01:31:08.968Z,18.31
2018-03-27T01:32:08.970Z,18.31
2018-03-27T01:33:08.964Z,18.34
2018-03-27T01:34:08.965Z,18.3
2018-03-27T01:35:08.968Z,18.28
2018-03-27T01:36:08.965Z,18.32
2018-03-27T01:37:08.967Z,18.28
2018-03-27T01:38:08.963Z,18.27
2018-03-27T01:39:08.989Z,18.32
2018-03-27T01:40:08.972Z,18.3
2018-03-27T01:41:08.969Z,18.27
2018-03-27T01:42:08.973Z,18.31
2018-03-27T01:43:08.980Z,18.26
2018-03-27T01:44:08.970Z,18.27
2018-03-27T01:45:08.970Z,18.3
2018-03-27T01:46:08.952Z,18.26
2018-03-27T01:47:08.966Z,18.26
2018-03-27T01:48:08.982Z,18.31
2018-03-27T01:49:08.980Z,18.27
2018-03-27T01:50:08.975Z,18.26
2018-03-27T01:51:08.955Z,18.31
2018-03-27T01:52:08.958Z,18.26
2018-03-27T01:53:08.966Z,18.26
2018-03-27T01:54:08.965Z,18.3
2018-03-27T01:55:08.790Z,18.24
2018-03-27T01:56:08.971Z,18.25
2018-03-27T01:57:08.947Z,18.28
2018-03-27T01:58:08.954Z,18.24
2018-03-27T01:59:08.991Z,18.24
2018-03-27T02:00:08.948Z,18.28
2018-03-27T02:01:08.973Z,18.22
2018-03-27T02:02:08.957Z,18.23
2018-03-27T02:03:08.976Z,18.27
2018-03-27T02:04:08.969Z,18.25
2018-03-27T02:05:09.011Z,18.22
2018-03-27T02:06:08.965Z,18.27
2018-03-27T02:07:08.959Z,18.22
2018-03-27T02:08:08.948Z,18.21
2018-03-27T02:09:09.039Z,18.25
2018-03-27T02:10:08.963Z,18.2
2018-03-27T02:11:08.955Z,18.21
2018-03-27T02:12:08.984Z,18.24
2018-03-27T02:13:08.966Z,18.21
2018-03-27T02:14:08.954Z,18.21
2018-03-27T02:15:08.957Z,18.25
2018-03-27T02:16:08.954Z,18.2
2018-03-27T02:17:08.961Z,18.19
2018-03-27T02:18:08.959Z,18.24
2018-03-27T02:19:08.974Z,18.18
2018-03-27T02:20:08.966Z,18.17
2018-03-27T02:21:08.958Z,18.2
2018-03-27T02:22:08.943Z,18.16
2018-03-27T02:23:08.959Z,18.16
2018-03-27T02:24:08.953Z,18.22
2018-03-27T02:25:08.961Z,18.18
2018-03-27T02:26:08.958Z,18.16
2018-03-27T02:27:08.945Z,18.2
2018-03-27T02:28:08.949Z,18.14
2018-03-27T02:29:08.984Z,18.15
2018-03-27T02:30:08.968Z,18.19
2018-03-27T02:31:08.965Z,18.15
2018-03-27T02:32:08.958Z,18.13
2018-03-27T02:33:08.944Z,18.18
2018-03-27T02:34:08.957Z,18.13
2018-03-27T02:35:08.961Z,18.14
2018-03-27T02:36:08.963Z,18.18
2018-03-27T02:37:08.968Z,18.13
2018-03-27T02:38:08.952Z,18.14
2018-03-27T02:39:08.960Z,18.17
2018-03-27T02:40:08.989Z,18.12
2018-03-27T02:41:08.947Z,18.12
2018-03-27T02:42:08.941Z,18.16
2018-03-27T02:43:08.939Z,18.13
2018-03-27T02:44:08.946Z,18.13
2018-03-27T02:45:08.976Z,18.16
2018-03-27T02:46:08.951Z,18.11
2018-03-27T02:47:08.962Z,18.11
2018-03-27T02:48:08.970Z,18.16
2018-03-27T02:49:08.949Z,18.12
2018-03-27T02:50:08.969Z,18.12
2018-03-27T02:51:08.947Z,18.15
2018-03-27T02:52:08.936Z,18.12
2018-03-27T02:53:08.939Z,18.1
2018-03-27T02:54:08.936Z,18.14
2018-03-27T02:55:08.946Z,18.08
2018-03-27T02:56:08.937Z,18.07
2018-03-27T02:57:08.937Z,18.13
2018-03-27T02:58:08.932Z,18.07
2018-03-27T02:59:08.939Z,18.06
2018-03-27T03:00:08.983Z,18.1
2018-03-27T03:01:08.934Z,18.07
2018-03-27T03:02:08.954Z,18.05
2018-03-27T03:03:08.945Z,18.1
2018-03-27T03:04:08.929Z,18.07
2018-03-27T03:05:08.966Z,18.06
2018-03-27T03:06:08.937Z,18.11
2018-03-27T03:07:08.934Z,18.07
2018-03-27T03:08:08.916Z,18.05
2018-03-27T03:09:08.966Z,18.1
2018-03-27T03:10:09.006Z,18.05
2018-03-27T03:11:08.936Z,18.04
2018-03-27T03:12:08.928Z,18.09
2018-03-27T03:13:08.923Z,18.05
2018-03-27T03:14:08.932Z,18.05
2018-03-27T03:15:08.918Z,18.09
2018-03-27T03:16:08.923Z,18.03
2018-03-27T03:17:08.938Z,18.02
2018-03-27T03:18:09.036Z,18.08
2018-03-27T03:19:09.061Z,18.04
2018-03-27T03:20:08.961Z,18.04
2018-03-27T03:21:08.930Z,18.08
2018-03-27T03:22:09.060Z,18.01
2018-03-27T03:23:08.921Z,18.02
2018-03-27T03:24:08.923Z,18.07
2018-03-27T03:25:09.201Z,18.02
2018-03-27T03:26:08.940Z,18.01
2018-03-27T03:27:08.945Z,18.06
2018-03-27T03:28:08.934Z,18
2018-03-27T03:29:08.932Z,18
2018-03-27T03:30:09.206Z,18.03
2018-03-27T03:31:08.931Z,18
2018-03-27T03:32:08.920Z,18
2018-03-27T03:33:08.932Z,18.04
2018-03-27T03:34:08.915Z,18
2018-03-27T03:35:08.963Z,18
2018-03-27T03:36:08.938Z,18.03
2018-03-27T03:37:08.925Z,17.99
2018-03-27T03:38:08.933Z,17.98
2018-03-27T03:39:08.932Z,18.03
2018-03-27T03:40:08.923Z,17.98
2018-03-27T03:41:08.971Z,17.98
2018-03-27T03:42:08.932Z,18.03
2018-03-27T03:43:08.911Z,17.98
2018-03-27T03:44:08.925Z,17.97
2018-03-27T03:45:08.953Z,18.01
2018-03-27T03:46:08.936Z,17.97
2018-03-27T03:47:08.922Z,17.97
2018-03-27T03:48:08.911Z,18.02
2018-03-27T03:49:08.924Z,17.97
2018-03-27T03:50:08.925Z,17.96
2018-03-27T03:51:08.928Z,18.01
2018-03-27T03:52:08.928Z,17.96
2018-03-27T03:53:08.988Z,17.94
2018-03-27T03:54:08.927Z,18
2018-03-27T03:55:08.941Z,17.97
2018-03-27T03:56:08.919Z,17.97
2018-03-27T03:57:08.916Z,18
2018-03-27T03:58:08.917Z,17.98
2018-03-27T03:59:08.918Z,18
2018-03-27T04:00:08.936Z,18.03
2018-03-27T04:01:08.923Z,18.02
2018-03-27T04:02:08.931Z,18.02
2018-03-27T04:03:08.917Z,18.05
2018-03-27T04:04:08.906Z,18.05
2018-03-27T04:05:08.937Z,18.06
2018-03-27T04:06:08.908Z,18.08
2018-03-27T04:07:08.913Z,18.09
2018-03-27T04:08:08.911Z,18.1
2018-03-27T04:09:08.951Z,18.13
2018-03-27T04:10:08.937Z,18.14
2018-03-27T04:11:08.984Z,18.16
2018-03-27T04:12:08.910Z,18.17
2018-03-27T04:13:08.917Z,18.17
2018-03-27T04:14:08.934Z,18.16
2018-03-27T04:15:08.960Z,18.19
2018-03-27T04:16:08.924Z,18.21
2018-03-27T04:17:08.908Z,18.22
2018-03-27T04:18:08.914Z,18.24
2018-03-27T04:19:08.901Z,18.26
2018-03-27T04:20:08.928Z,18.28
2018-03-27T04:21:08.936Z,18.31
2018-03-27T04:22:08.922Z,18.32
2018-03-27T04:23:08.942Z,18.33
2018-03-27T04:24:08.914Z,18.35
2018-03-27T04:25:08.935Z,18.37
2018-03-27T04:26:08.990Z,18.37
2018-03-27T04:27:08.917Z,18.4
2018-03-27T04:28:08.918Z,18.43
2018-03-27T04:29:08.915Z,18.42
2018-03-27T04:30:08.958Z,18.44
2018-03-27T04:31:08.960Z,18.47
2018-03-27T04:32:08.927Z,18.49
2018-03-27T04:33:08.923Z,18.49
2018-03-27T04:34:08.908Z,18.52
2018-03-27T04:35:08.919Z,18.52
2018-03-27T04:36:08.905Z,18.54
2018-03-27T04:37:08.890Z,18.56
2018-03-27T04:38:08.898Z,18.55
2018-03-27T04:39:08.899Z,18.58
2018-03-27T04:40:08.912Z,18.6
2018-03-27T04:41:08.912Z,18.6
2018-03-27T04:42:08.961Z,18.63
2018-03-27T04:43:08.850Z,18.65
2018-03-27T04:44:08.907Z,18.66
2018-03-27T04:45:08.904Z,18.66
2018-03-27T04:46:08.900Z,18.69
2018-03-27T04:47:08.903Z,18.7
2018-03-27T04:48:08.923Z,18.71
2018-03-27T04:49:08.899Z,18.73
2018-03-27T04:50:08.935Z,18.73
2018-03-27T04:51:08.903Z,18.74
2018-03-27T04:52:08.954Z,18.77
2018-03-27T04:53:08.908Z,18.76
2018-03-27T04:54:08.902Z,18.78
2018-03-27T04:55:08.940Z,18.81
2018-03-27T04:56:08.887Z,18.8
2018-03-27T04:57:08.893Z,18.82
2018-03-27T04:58:08.898Z,18.84
2018-03-27T04:59:08.900Z,18.84
2018-03-27T05:00:08.905Z,18.85
2018-03-27T05:01:08.907Z,18.87
2018-03-27T05:02:08.917Z,18.87
2018-03-27T05:03:08.905Z,18.88
2018-03-27T05:04:08.921Z,18.91
2018-03-27T05:05:08.907Z,18.91
2018-03-27T05:06:08.911Z,18.92
2018-03-27T05:07:08.916Z,18.94
2018-03-27T05:08:08.905Z,18.95
2018-03-27T05:09:08.900Z,18.96
2018-03-27T05:10:08.905Z,18.98
2018-03-27T05:11:08.920Z,18.99
2018-03-27T05:12:08.899Z,19
2018-03-27T05:13:09.114Z,19.01
2018-03-27T05:14:08.898Z,19.02
2018-03-27T05:15:08.925Z,19.03
2018-03-27T05:16:08.909Z,19.04
2018-03-27T05:17:08.925Z,19.05
2018-03-27T05:18:08.905Z,19.06
2018-03-27T05:19:09.010Z,19.06
2018-03-27T05:20:08.984Z,19.08
2018-03-27T05:21:08.927Z,19.08
2018-03-27T05:22:08.900Z,19.1
2018-03-27T05:23:08.914Z,19.11
2018-03-27T05:24:08.955Z,19.11
2018-03-27T05:25:08.883Z,19.13
2018-03-27T05:26:08.928Z,19.13
2018-03-27T05:27:08.904Z,19.14
2018-03-27T05:28:08.911Z,19.16
2018-03-27T05:29:08.915Z,19.18
2018-03-27T05:30:08.894Z,19.18
2018-03-27T05:31:08.952Z,19.19
2018-03-27T05:32:08.905Z,19.19
2018-03-27T05:33:08.904Z,19.21
2018-03-27T05:34:08.895Z,19.23
2018-03-27T05:35:08.904Z,19.23
2018-03-27T05:36:08.889Z,19.23
2018-03-27T05:37:08.904Z,19.22
2018-03-27T05:38:08.897Z,19.22
2018-03-27T05:39:08.910Z,19.24
2018-03-27T05:40:08.925Z,19.27
2018-03-27T05:41:08.895Z,19.28
2018-03-27T05:42:08.962Z,19.28
2018-03-27T05:43:08.896Z,19.27
2018-03-27T05:44:08.944Z,19.27
2018-03-27T05:45:08.938Z,19.29
2018-03-27T05:46:08.888Z,19.32
2018-03-27T05:47:08.893Z,19.33
2018-03-27T05:48:08.927Z,19.33
2018-03-27T05:49:08.893Z,19.34
2018-03-27T05:50:08.901Z,19.19
2018-03-27T05:51:08.944Z,19.19
2018-03-27T05:52:08.729Z,19.2
2018-03-27T05:53:08.884Z,19.19
2018-03-27T05:54:08.889Z,19.24
2018-03-27T05:55:08.899Z,19.26
2018-03-27T05:56:09.038Z,19.26
2018-03-27T05:57:08.884Z,19.29
2018-03-27T05:58:08.886Z,19.3
2018-03-27T05:59:08.888Z,19.3
2018-03-27T06:00:08.872Z,19.32
2018-03-27T06:01:08.892Z,19.33
2018-03-27T06:02:08.885Z,19.34
2018-03-27T06:03:08.897Z,19.35
2018-03-27T06:04:08.879Z,19.37
2018-03-27T06:05:08.949Z,19.35
2018-03-27T06:06:08.869Z,19.37
2018-03-27T06:07:08.863Z,19.38
2018-03-27T06:08:08.887Z,19.38
2018-03-27T06:09:08.885Z,19.38
2018-03-27T06:10:08.869Z,19.4
2018-03-27T06:11:08.879Z,19.39
2018-03-27T06:12:08.877Z,19.39
2018-03-27T06:13:08.906Z,19.4
2018-03-27T06:14:08.926Z,19.4
2018-03-27T06:15:08.882Z,19.4
2018-03-27T06:16:08.924Z,19.41
2018-03-27T06:17:08.893Z,19.41
2018-03-27T06:18:08.877Z,19.42
2018-03-27T06:19:08.867Z,19.42
2018-03-27T06:20:08.894Z,19.42
2018-03-27T06:21:08.888Z,19.41
2018-03-27T06:22:08.877Z,19.42
2018-03-27T06:23:08.878Z,19.41
2018-03-27T06:24:08.869Z,19.41
2018-03-27T06:25:08.883Z,19.42
2018-03-27T06:26:08.885Z,19.4
2018-03-27T06:27:08.878Z,19.41
2018-03-27T06:28:08.872Z,19.41
2018-03-27T06:29:08.890Z,19.41
2018-03-27T06:30:08.865Z,19.42
2018-03-27T06:31:08.880Z,19.43
2018-03-27T06:32:08.866Z,19.43
2018-03-27T06:33:08.877Z,19.43
2018-03-27T06:34:08.867Z,19.45
2018-03-27T06:35:08.875Z,19.44
2018-03-27T06:36:08.864Z,19.44
2018-03-27T06:37:08.876Z,19.44
2018-03-27T06:38:08.875Z,19.44
2018-03-27T06:39:08.866Z,19.44
2018-03-27T06:40:08.866Z,19.45
2018-03-27T06:41:08.869Z,19.47
2018-03-27T06:42:08.924Z,19.46
2018-03-27T06:43:08.875Z,19.47
2018-03-27T06:44:08.862Z,19.46
2018-03-27T06:45:09.897Z,19.46
2018-03-27T06:46:08.890Z,19.48
2018-03-27T06:47:08.882Z,19.48
2018-03-27T06:48:08.920Z,19.48
2018-03-27T06:49:08.868Z,19.5
2018-03-27T06:50:08.871Z,19.5
2018-03-27T06:51:08.852Z,19.5
2018-03-27T06:52:08.861Z,19.52
2018-03-27T06:53:08.867Z,19.51
2018-03-27T06:54:08.883Z,19.53
2018-03-27T06:55:08.864Z,19.52
2018-03-27T06:56:08.871Z,19.52
2018-03-27T06:57:08.895Z,19.53
2018-03-27T06:58:08.889Z,19.54
2018-03-27T06:59:08.878Z,19.53
2018-03-27T07:00:08.873Z,19.54
2018-03-27T07:01:08.852Z,19.55
2018-03-27T07:02:08.880Z,19.55
2018-03-27T07:03:08.864Z,19.57
2018-03-27T07:04:08.842Z,19.57
2018-03-27T07:05:08.849Z,19.57
2018-03-27T07:06:08.901Z,19.58
2018-03-27T07:07:08.878Z,19.59
2018-03-27T07:08:08.904Z,19.6
2018-03-27T07:09:08.866Z,19.61
2018-03-27T07:10:08.900Z,19.62
2018-03-27T07:11:08.869Z,19.6
2018-03-27T07:12:08.866Z,19.62
2018-03-27T07:13:08.913Z,19.62
2018-03-27T07:14:08.898Z,19.63
2018-03-27T07:15:08.897Z,19.64
2018-03-27T07:16:08.945Z,19.65
2018-03-27T07:17:08.838Z,19.65
2018-03-27T07:18:08.905Z,19.65
2018-03-27T07:19:08.852Z,19.66
2018-03-27T07:20:08.952Z,19.67
2018-03-27T07:21:08.941Z,19.68
2018-03-27T07:22:08.890Z,19.69
2018-03-27T07:23:08.871Z,19.69
2018-03-27T07:24:08.860Z,19.71
2018-03-27T07:25:08.871Z,19.71
2018-03-27T07:26:08.853Z,19.7
2018-03-27T07:27:08.844Z,19.72
2018-03-27T07:28:08.862Z,19.72
2018-03-27T07:29:08.841Z,19.72
2018-03-27T07:30:08.891Z,19.73
2018-03-27T07:31:08.853Z,19.74
2018-03-27T07:32:08.871Z,19.72
2018-03-27T07:33:08.886Z,19.76
2018-03-27T07:34:08.914Z,19.76
2018-03-27T07:35:08.856Z,19.79
2018-03-27T07:36:08.839Z,19.79
2018-03-27T07:37:08.841Z,19.8
2018-03-27T07:38:08.881Z,19.82
2018-03-27T07:39:08.926Z,19.85
2018-03-27T07:40:08.906Z,19.85
2018-03-27T07:41:08.846Z,19.86
2018-03-27T07:42:08.869Z,19.87
2018-03-27T07:43:08.834Z,19.88
2018-03-27T07:44:08.881Z,19.88
2018-03-27T07:45:08.865Z,19.89
2018-03-27T07:46:08.848Z,19.9
2018-03-27T07:47:08.894Z,19.9
2018-03-27T07:48:08.844Z,19.91
2018-03-27T07:49:08.882Z,19.91
2018-03-27T07:50:08.877Z,19.93
2018-03-27T07:51:08.846Z,19.92
2018-03-27T07:52:08.863Z,19.92
2018-03-27T07:53:08.842Z,19.93
2018-03-27T07:54:08.855Z,19.92
2018-03-27T07:55:08.855Z,19.93
2018-03-27T07:56:08.844Z,19.94
2018-03-27T07:57:08.849Z,19.93
2018-03-27T07:58:08.845Z,19.93
2018-03-27T07:59:08.877Z,19.93
2018-03-27T08:00:08.843Z,19.93
2018-03-27T08:01:08.858Z,19.93
2018-03-27T08:02:08.852Z,19.94
2018-03-27T08:03:08.855Z,19.91
2018-03-27T08:04:08.837Z,19.91
2018-03-27T08:05:08.784Z,19.92
2018-03-27T08:06:08.880Z,19.89
2018-03-27T08:07:08.836Z,19.89
2018-03-27T08:08:08.852Z,19.9
2018-03-27T08:09:08.844Z,19.88
2018-03-27T08:10:08.835Z,19.88
2018-03-27T08:11:08.953Z,19.88
2018-03-27T08:12:08.886Z,19.86
2018-03-27T08:13:08.857Z,19.87
2018-03-27T08:14:08.821Z,19.88
2018-03-27T08:15:08.848Z,19.85
2018-03-27T08:16:08.841Z,19.87
2018-03-27T08:17:08.802Z,19.87
2018-03-27T08:18:08.889Z,19.86
2018-03-27T08:19:08.828Z,19.86
2018-03-27T08:20:08.857Z,19.86
2018-03-27T08:21:08.862Z,19.84
2018-03-27T08:22:08.844Z,19.86
2018-03-27T08:23:08.865Z,19.84
2018-03-27T08:24:08.996Z,19.87
2018-03-27T08:25:08.834Z,19.85
2018-03-27T08:26:08.840Z,19.88
2018-03-27T08:27:08.842Z,19.89
2018-03-27T08:28:08.869Z,19.9
2018-03-27T08:29:08.851Z,19.92
2018-03-27T08:30:08.830Z,19.93
2018-03-27T08:31:08.856Z,19.93
2018-03-27T08:32:08.845Z,19.98
2018-03-27T08:33:08.868Z,19.96
2018-03-27T08:34:08.841Z,19.96
2018-03-27T08:35:08.832Z,19.97
2018-03-27T08:36:08.823Z,19.95
2018-03-27T08:37:08.829Z,19.96
2018-03-27T08:38:08.825Z,19.96
2018-03-27T08:39:08.955Z,19.95
2018-03-27T08:40:08.865Z,19.96
2018-03-27T08:41:08.826Z,19.96
2018-03-27T08:42:09.537Z,19.94
2018-03-27T08:43:08.831Z,19.93
2018-03-27T08:44:08.829Z,19.96
2018-03-27T08:45:08.836Z,19.99
2018-03-27T08:46:12.215Z,20
2018-03-27T08:47:08.825Z,20.02
2018-03-27T08:48:08.943Z,20.03
2018-03-27T08:49:08.829Z,20.05
2018-03-27T08:50:08.827Z,20.07
2018-03-27T08:51:08.833Z,20.08
2018-03-27T08:52:12.306Z,20.09
2018-03-27T08:53:08.824Z,20.05
2018-03-27T08:54:08.880Z,20.07
2018-03-27T08:55:08.866Z,20.07
2018-03-27T08:56:08.863Z,20.05
2018-03-27T08:57:08.825Z,20.07
2018-03-27T08:58:08.847Z,20.07
2018-03-27T08:59:08.868Z,20.09
2018-03-27T09:00:08.825Z,20.08
2018-03-27T09:01:08.813Z,20.09
2018-03-27T09:02:08.825Z,20.08
2018-03-27T09:03:08.820Z,20.07
2018-03-27T09:04:08.822Z,20.08
2018-03-27T09:05:08.832Z,20.08
2018-03-27T09:06:08.814Z,20.07
2018-03-27T09:07:08.822Z,20.08
2018-03-27T09:08:08.807Z,20.09
2018-03-27T09:09:08.864Z,20.07
2018-03-27T09:10:08.816Z,20.07
2018-03-27T09:11:08.820Z,20.08
2018-03-27T09:12:08.870Z,20.07
2018-03-27T09:13:08.995Z,20.07
2018-03-27T09:14:08.821Z,20.07
2018-03-27T09:15:08.831Z,20.07
2018-03-27T09:16:08.955Z,20.06
2018-03-27T09:17:08.831Z,20.04
2018-03-27T09:18:08.824Z,20.05
2018-03-27T09:19:08.873Z,20.06
2018-03-27T09:20:08.824Z,20.07
2018-03-27T09:21:08.932Z,20.05
2018-03-27T09:22:08.921Z,20.05
2018-03-27T09:23:08.813Z,20.06
2018-03-27T09:24:08.854Z,20.05
2018-03-27T09:25:08.833Z,20.04
2018-03-27T09:26:08.822Z,20.04
2018-03-27T09:27:08.810Z,20.03
2018-03-27T09:28:08.830Z,20.03
2018-03-27T09:29:08.822Z,20.03
2018-03-27T09:30:08.810Z,20.03
2018-03-27T09:31:08.825Z,20.02
2018-03-27T09:32:08.821Z,20.04
2018-03-27T09:33:08.833Z,20.02
2018-03-27T09:34:08.819Z,20.02
2018-03-27T09:35:08.812Z,20
2018-03-27T09:36:08.813Z,20.02
2018-03-27T09:37:08.825Z,20.01
2018-03-27T09:38:08.817Z,20.02
2018-03-27T09:39:09.013Z,20
2018-03-27T09:40:08.809Z,19.99
2018-03-27T09:41:08.814Z,20
2018-03-27T09:42:08.814Z,20
2018-03-27T09:43:08.824Z,20.01
2018-03-27T09:44:08.813Z,20
2018-03-27T09:45:08.809Z,20
2018-03-27T09:46:08.813Z,19.98
2018-03-27T09:47:08.815Z,20
2018-03-27T09:48:08.866Z,19.99
2018-03-27T09:49:08.887Z,19.98
2018-03-27T09:50:08.814Z,19.99
2018-03-27T09:51:08.844Z,20.01
2018-03-27T09:52:08.823Z,20
2018-03-27T09:53:08.810Z,20.01
2018-03-27T09:54:08.839Z,20.02
2018-03-27T09:55:08.820Z,20.02
2018-03-27T09:56:08.811Z,20.02
2018-03-27T09:57:08.808Z,20.03
2018-03-27T09:58:08.809Z,20.02
2018-03-27T09:59:08.832Z,20.04
2018-03-27T10:00:08.822Z,20.03
2018-03-27T10:01:08.805Z,20.03
2018-03-27T10:02:08.807Z,20.03
2018-03-27T10:03:08.809Z,20.03
2018-03-27T10:04:08.816Z,20.02
2018-03-27T10:05:08.807Z,20.02
2018-03-27T10:06:08.812Z,20.04
2018-03-27T10:07:08.819Z,20.06
2018-03-27T10:08:08.800Z,20.06
2018-03-27T10:09:08.835Z,20.07
2018-03-27T10:10:08.812Z,20.07
2018-03-27T10:11:08.813Z,20.07
2018-03-27T10:12:08.838Z,20.08
2018-03-27T10:13:08.813Z,20.08
2018-03-27T10:14:08.820Z,20.08
2018-03-27T10:15:08.798Z,20.08
2018-03-27T10:16:08.794Z,20.08
2018-03-27T10:17:08.807Z,20.11
2018-03-27T10:18:08.806Z,20.06
2018-03-27T10:19:08.818Z,20.04
2018-03-27T10:20:08.931Z,20.04
2018-03-27T10:21:08.815Z,20.04
2018-03-27T10:22:08.803Z,20.04
2018-03-27T10:23:08.853Z,20.06
2018-03-27T10:24:08.813Z,20.06
2018-03-27T10:25:08.791Z,20.06
2018-03-27T10:26:08.893Z,20.06
2018-03-27T10:27:08.813Z,20.07
2018-03-27T10:28:08.796Z,20.06
2018-03-27T10:29:08.828Z,20.07
2018-03-27T10:30:08.789Z,20.07
2018-03-27T10:31:08.815Z,20.06
2018-03-27T10:32:08.817Z,20.06
2018-03-27T10:33:08.873Z,20.06
2018-03-27T10:34:08.818Z,20.07
2018-03-27T10:35:08.791Z,20.06
2018-03-27T10:36:08.801Z,20.06
2018-03-27T10:37:08.804Z,20.06
2018-03-27T10:38:08.794Z,20.07
2018-03-27T10:39:08.800Z,20.06
2018-03-27T10:40:08.809Z,20.05
2018-03-27T10:41:08.788Z,20.05
2018-03-27T10:42:08.828Z,20.05
2018-03-27T10:43:08.800Z,20.03
2018-03-27T10:44:08.822Z,20.05
2018-03-27T10:45:08.799Z,20.07
2018-03-27T10:46:08.815Z,20.07
2018-03-27T10:47:08.793Z,20.05
2018-03-27T10:48:08.794Z,20.09
2018-03-27T10:49:08.853Z,20.07
2018-03-27T10:50:10.988Z,20.08
2018-03-27T10:51:08.831Z,20.12
2018-03-27T10:51:41.216Z,20.26
2018-03-27T10:52:41.222Z,20.32
2018-03-27T10:53:41.199Z,20.34
2018-03-27T10:54:41.230Z,20.35
2018-03-27T10:55:41.218Z,20.41
2018-03-27T10:56:41.195Z,20.43
2018-03-27T10:57:41.202Z,20.45
2018-03-27T10:58:41.194Z,20.47
2018-03-27T10:59:41.249Z,20.5
2018-03-27T11:00:41.186Z,20.52
2018-03-27T11:01:41.194Z,20.54
2018-03-27T11:02:41.209Z,20.56
2018-03-27T11:03:41.208Z,20.57
2018-03-27T11:04:41.307Z,20.58
2018-03-27T11:05:41.216Z,20.62
2018-03-27T11:06:41.208Z,20.64
2018-03-27T11:07:41.230Z,20.65
2018-03-27T11:08:41.238Z,20.66
2018-03-27T11:09:41.245Z,20.69
2018-03-27T11:10:41.230Z,20.71
2018-03-27T11:11:41.228Z,20.74
2018-03-27T11:12:41.177Z,20.76
2018-03-27T11:13:41.389Z,20.75
2018-03-27T11:14:41.250Z,20.79
2018-03-27T11:15:41.194Z,20.83
2018-03-27T11:16:41.236Z,20.85
2018-03-27T11:17:41.194Z,20.87
2018-03-27T11:18:41.201Z,20.89
2018-03-27T11:27:32.396Z,21.02
2018-03-27T11:28:13.164Z,21.03
2018-03-27T11:29:13.144Z,21
2018-03-27T11:30:13.128Z,21.03
2018-03-27T11:31:13.139Z,21.03
2018-03-27T11:32:13.148Z,21.02
2018-03-27T11:33:13.137Z,21.03
2018-03-27T11:34:13.143Z,21.02
2018-03-27T11:35:13.113Z,21
2018-03-27T11:36:13.108Z,20.98
2018-03-27T11:37:13.152Z,20.98
2018-03-27T11:38:13.137Z,20.98
2018-03-27T11:39:13.140Z,20.96
2018-03-27T11:40:13.122Z,20.98
2018-03-27T11:41:13.116Z,20.98
2018-03-27T11:42:13.109Z,20.95
2018-03-27T11:43:13.159Z,20.97
2018-03-27T11:44:13.121Z,20.97
2018-03-27T11:45:13.127Z,20.98
2018-03-27T11:46:13.141Z,20.98
2018-03-27T11:47:13.113Z,20.98
2018-03-27T11:48:13.105Z,20.98
2018-03-27T11:49:13.138Z,20.98
2018-03-27T11:50:13.123Z,20.99
2018-03-27T11:51:13.126Z,20.99
2018-03-27T11:52:13.164Z,20.99
2018-03-27T11:53:13.105Z,20.98
2018-03-27T11:54:13.101Z,20.98
2018-03-27T11:55:13.160Z,20.99
2018-03-27T11:56:13.134Z,20.98
2018-03-27T11:57:13.132Z,20.98
2018-03-27T11:58:13.162Z,20.99
2018-03-27T11:59:13.105Z,20.99
2018-03-27T12:00:13.120Z,20.99
2018-03-27T12:01:13.134Z,20.96
2018-03-27T12:02:13.130Z,20.98
2018-03-27T12:03:13.123Z,20.95
2018-03-27T12:04:13.107Z,20.96
2018-03-27T12:05:13.393Z,20.96
2018-03-27T12:06:13.102Z,20.96
2018-03-27T12:07:13.121Z,20.97
2018-03-27T12:08:13.117Z,20.97
2018-03-27T12:09:13.138Z,20.97
2018-03-27T12:10:13.160Z,20.96
2018-03-27T12:11:13.127Z,20.97
2018-03-27T12:12:13.096Z,20.97
2018-03-27T12:13:13.161Z,20.97
2018-03-27T12:14:13.124Z,20.97
2018-03-27T12:15:13.162Z,20.96
2018-03-27T12:16:13.131Z,20.96
2018-03-27T12:17:13.090Z,20.98
2018-03-27T12:18:13.098Z,20.92
2018-03-27T12:19:13.125Z,21
2018-03-27T12:20:13.131Z,21.02
2018-03-27T12:21:13.121Z,21.04
2018-03-27T12:22:13.141Z,21.06
2018-03-27T12:23:13.094Z,21.07
2018-03-27T12:24:13.108Z,21.08
2018-03-27T12:25:13.135Z,21.1
2018-03-27T12:26:13.130Z,21.11
2018-03-27T12:27:13.118Z,21.12
2018-03-27T12:28:13.149Z,21.15
2018-03-27T12:29:13.115Z,21.19
2018-03-27T12:30:13.092Z,21.19
2018-03-27T12:31:13.384Z,21.22
2018-03-27T12:32:13.137Z,21.23
2018-03-27T12:33:13.126Z,21.27
2018-03-27T12:34:13.115Z,21.29
2018-03-27T12:35:13.083Z,21.29
2018-03-27T12:36:13.119Z,21.31
2018-03-27T12:37:13.115Z,21.31
2018-03-27T12:38:13.125Z,21.3
2018-03-27T12:39:13.105Z,21.31
2018-03-27T12:40:13.120Z,21.31
2018-03-27T12:41:13.087Z,21.3
2018-03-27T12:42:13.109Z,21.31
2018-03-27T12:43:13.114Z,21.28
2018-03-27T12:44:13.115Z,21.24
2018-03-27T12:45:13.120Z,21.24
2018-03-27T12:46:13.133Z,21.23
2018-03-27T12:47:13.082Z,21.23
2018-03-27T12:48:13.092Z,21.22
2018-03-27T12:49:13.123Z,21.18
2018-03-27T12:50:13.106Z,21.15
2018-03-27T12:51:13.117Z,21.11
2018-03-27T12:52:13.099Z,21.12
2018-03-27T12:53:13.129Z,21.12
2018-03-27T12:54:13.101Z,21.1
2018-03-27T12:55:13.109Z,21.11
2018-03-27T12:56:13.105Z,21.11
2018-03-27T12:57:13.105Z,21.11
2018-03-27T12:58:13.116Z,21.1
2018-03-27T12:59:13.137Z,21.1
2018-03-27T13:00:13.097Z,21.1
2018-03-27T13:01:13.122Z,21.09
2018-03-27T13:02:13.103Z,21.1
2018-03-27T13:03:13.117Z,21.09